Time;durP1;ratioP1;P1;durP2;ratioP2;P2;SDS_P1;SDS_P2;PMS_P1;PMS_P2;Temp;Humidity;BMP_temperature;BMP_pressure;BME280_temperature;BME280_humidity;BME280_pressure;Samples;Min_cycle;Max_cycle;Signal;HPM_P1;HPM_P2
2023/11/17 00:00:31;;;;;;;8.07;5.78;;;;;;;;;;5055122;28;20044;-65
2023/11/17 00:02:57;;;;;;;6.90;5.40;;;;;;;;;;5052982;28;20071;-64
2023/11/17 00:05:23;;;;;;;6.63;5.18;;;;;;;;;;5054398;28;20032;-64
2023/11/17 00:07:52;;;;;;;6.90;5.47;;;;;;;;;;5053489;28;20110;-65
2023/11/17 00:10:18;;;;;;;6.70;5.15;;;;;;;;;;5054521;28;20025;-66
2023/11/17 00:12:44;;;;;;;7.93;4.95;;;;;;;;;;5053721;28;20551;-66
2023/11/17 00:15:12;;;;;;;7.43;4.43;;;;;;;;;;5053200;28;20013;-66
2023/11/17 00:17:38;;;;;;;4.65;4.07;;;;;;;;;;5054810;28;20052;-65
2023/11/17 00:20:04;;;;;;;6.65;4.28;;;;;;;;;;5053398;28;20021;-65
2023/11/17 00:22:30;;;;;;;7.00;4.53;;;;;;;;;;5053372;28;20018;-66
2023/11/17 00:24:56;;;;;;;6.38;3.72;;;;;;;;;;5053194;28;20020;-66
2023/11/17 00:27:22;;;;;;;4.63;3.65;;;;;;;;;;5053492;28;20025;-66
2023/11/17 00:29:48;;;;;;;5.35;3.75;;;;;;;;;;5053332;28;20028;-66
2023/11/17 00:32:15;;;;;;;5.28;3.20;;;;;;;;;;5051902;28;20067;-66
2023/11/17 00:34:41;;;;;;;6.97;3.55;;;;;;;;;;5055685;28;20102;-66
2023/11/17 00:37:07;;;;;;;5.30;2.67;;;;;;;;;;5052505;28;20059;-66
2023/11/17 00:39:39;;;;;;;5.22;2.60;;;;;;;;;;5053527;28;20564;-66
2023/11/17 00:42:07;;;;;;;3.38;2.10;;;;;;;;;;5052282;28;20021;-67
2023/11/17 00:44:33;;;;;;;2.35;2.08;;;;;;;;;;5053805;28;20025;-67
2023/11/17 00:46:59;;;;;;;3.60;2.10;;;;;;;;;;5051777;28;20029;-66
2023/11/17 00:49:26;;;;;;;2.28;1.63;;;;;;;;;;5053752;28;20532;-67
2023/11/17 00:51:52;;;;;;;2.83;2.13;;;;;;;;;;5052360;28;20021;-67
2023/11/17 00:54:25;;;;;;;2.95;2.00;;;;;;;;;;5053418;28;20017;-65
2023/11/17 00:56:54;;;;;;;2.38;1.80;;;;;;;;;;5051371;28;20021;-65
2023/11/17 00:59:20;;;;;;;1.83;1.70;;;;;;;;;;5053304;28;20106;-65
2023/11/17 01:01:45;;;;;;;5.18;2.10;;;;;;;;;;5053653;28;20068;-66
2023/11/17 01:04:13;;;;;;;3.63;1.70;;;;;;;;;;5052922;28;21016;-66
2023/11/17 01:06:38;;;;;;;2.53;1.88;;;;;;;;;;5054246;28;20027;-66
2023/11/17 01:09:04;;;;;;;2.88;1.58;;;;;;;;;;5054123;28;20370;-66
2023/11/17 01:11:30;;;;;;;1.30;1.13;;;;;;;;;;5053028;28;20013;-66
2023/11/17 01:13:57;;;;;;;3.63;0.88;;;;;;;;;;5052940;28;20017;-66
2023/11/17 01:16:22;;;;;;;1.98;0.70;;;;;;;;;;5052661;28;20131;-66
2023/11/17 01:18:50;;;;;;;1.60;1.00;;;;;;;;;;5053450;28;20128;-66
2023/11/17 01:21:16;;;;;;;1.55;0.85;;;;;;;;;;5052833;28;20025;-66
2023/11/17 01:23:42;;;;;;;1.20;1.10;;;;;;;;;;5054246;28;20051;-66
2023/11/17 01:26:08;;;;;;;4.78;0.95;;;;;;;;;;5049831;28;20052;-66
2023/11/17 01:28:34;;;;;;;2.65;1.00;;;;;;;;;;5053570;28;20025;-66
2023/11/17 01:31:00;;;;;;;2.17;1.02;;;;;;;;;;5049551;28;20978;-66
2023/11/17 01:33:26;;;;;;;1.10;0.95;;;;;;;;;;5047686;28;20032;-66
2023/11/17 01:35:52;;;;;;;1.75;1.10;;;;;;;;;;5052768;28;20025;-65
2023/11/17 01:38:18;;;;;;;1.23;1.10;;;;;;;;;;5052608;28;20104;-66
2023/11/17 01:40:44;;;;;;;2.28;1.35;;;;;;;;;;5055281;28;20029;-66
2023/11/17 01:43:11;;;;;;;3.63;1.45;;;;;;;;;;5051437;28;20027;-67
2023/11/17 01:45:39;;;;;;;2.15;1.83;;;;;;;;;;5053153;28;20500;-67
2023/11/17 01:48:07;;;;;;;2.53;2.00;;;;;;;;;;5051350;28;20037;-67
2023/11/17 01:50:33;;;;;;;2.10;1.23;;;;;;;;;;5053266;28;20021;-66
2023/11/17 01:52:59;;;;;;;2.28;1.60;;;;;;;;;;5051131;28;20021;-66
2023/11/17 01:55:25;;;;;;;5.18;1.50;;;;;;;;;;5052804;28;20458;-66
2023/11/17 01:57:51;;;;;;;3.33;1.17;;;;;;;;;;5051491;28;20028;-65
2023/11/17 02:00:17;;;;;;;2.45;1.70;;;;;;;;;;5052574;28;20025;-64
2023/11/17 02:02:50;;;;;;;2.00;1.45;;;;;;;;;;5051724;28;20029;-65
2023/11/17 02:05:17;;;;;;;3.83;1.70;;;;;;;;;;5041696;28;20023;-65
2023/11/17 02:08:02;;;;;;;4.72;1.95;;;;;;;;;;5051758;28;20033;-65
2023/11/17 02:10:31;;;;;;;3.97;2.03;;;;;;;;;;5052895;28;20025;-65
2023/11/17 02:13:02;;;;;;;4.05;2.47;;;;;;;;;;5051173;28;20104;-65
2023/11/17 02:15:33;;;;;;;5.95;2.40;;;;;;;;;;5054224;28;20032;-65
2023/11/17 02:18:04;;;;;;;5.18;2.38;;;;;;;;;;5040958;28;20510;-64
2023/11/17 02:20:34;;;;;;;4.05;2.58;;;;;;;;;;5052239;28;20478;-64
2023/11/17 02:23:02;;;;;;;4.38;2.60;;;;;;;;;;5051121;28;20021;-64
2023/11/17 02:25:32;;;;;;;5.25;2.50;;;;;;;;;;5052362;28;20458;-64
2023/11/17 02:28:20;;;;;;;3.88;2.55;;;;;;;;;;5050911;28;20029;-64
2023/11/17 02:30:55;;;;;;;3.35;2.65;;;;;;;;;;5051755;28;20419;-64
2023/11/17 02:33:25;;;;;;;4.95;2.67;;;;;;;;;;5048322;28;20450;-65
2023/11/17 02:36:02;;;;;;;4.63;3.08;;;;;;;;;;5051732;28;20461;-65
2023/11/17 02:38:28;;;;;;;3.85;3.25;;;;;;;;;;5052222;28;20116;-65
2023/11/17 02:40:55;;;;;;;7.35;4.20;;;;;;;;;;5050624;28;20021;-64
2023/11/17 02:43:23;;;;;;;7.35;4.03;;;;;;;;;;5052072;28;20105;-65
2023/11/17 02:45:49;;;;;;;7.88;4.60;;;;;;;;;;5051953;28;20106;-64
2023/11/17 02:48:21;;;;;;;6.32;4.15;;;;;;;;;;5050276;28;20032;-64
2023/11/17 02:51:18;;;;;;;6.32;4.60;;;;;;;;;;5053820;28;20386;-64
2023/11/17 02:53:45;;;;;;;10.00;4.78;;;;;;;;;;5051825;28;20024;-64
2023/11/17 02:56:12;;;;;;;9.00;4.55;;;;;;;;;;5050224;28;20148;-65
2023/11/17 02:58:38;;;;;;;8.02;4.63;;;;;;;;;;5051741;28;20043;-66
2023/11/17 03:01:04;;;;;;;11.68;5.43;;;;;;;;;;5050153;28;20104;-65
2023/11/17 03:03:30;;;;;;;8.40;5.00;;;;;;;;;;5051733;28;20107;-64
2023/11/17 03:05:59;;;;;;;11.38;5.50;;;;;;;;;;5050394;28;20070;-64
2023/11/17 03:08:25;;;;;;;9.93;5.40;;;;;;;;;;5051589;28;20029;-64
2023/11/17 03:10:51;;;;;;;7.32;4.65;;;;;;;;;;5051046;28;20029;-64
2023/11/17 03:13:17;;;;;;;7.50;4.97;;;;;;;;;;5049524;28;20036;-64
2023/11/17 03:15:46;;;;;;;7.60;4.75;;;;;;;;;;5051128;28;20025;-64
2023/11/17 03:18:12;;;;;;;7.22;4.65;;;;;;;;;;5049671;28;20048;-64
2023/11/17 03:20:38;;;;;;;9.85;4.85;;;;;;;;;;5050745;28;20021;-64
2023/11/17 03:23:04;;;;;;;8.45;4.63;;;;;;;;;;5050193;28;20513;-65
2023/11/17 03:25:30;;;;;;;7.57;4.38;;;;;;;;;;5051322;28;20029;-64
2023/11/17 03:27:56;;;;;;;6.68;3.90;;;;;;;;;;5050100;28;20052;-64
2023/11/17 03:30:23;;;;;;;7.47;4.00;;;;;;;;;;5051359;28;20496;-65
2023/11/17 03:32:54;;;;;;;9.32;3.50;;;;;;;;;;5049842;28;20398;-64
2023/11/17 03:35:20;;;;;;;6.80;4.35;;;;;;;;;;5050965;28;20013;-64
2023/11/17 03:37:46;;;;;;;7.82;3.88;;;;;;;;;;5050707;28;20037;-64
2023/11/17 03:40:14;;;;;;;7.75;3.45;;;;;;;;;;5050886;28;20020;-64
2023/11/17 03:42:41;;;;;;;5.80;3.53;;;;;;;;;;5050579;28;20025;-64
2023/11/17 03:45:08;;;;;;;4.07;3.47;;;;;;;;;;5050164;28;20021;-64
2023/11/17 03:47:35;;;;;;;5.82;4.10;;;;;;;;;;5050631;28;20109;-64
2023/11/17 03:50:01;;;;;;;6.78;3.80;;;;;;;;;;5050094;28;20067;-65
2023/11/17 03:52:27;;;;;;;6.47;3.17;;;;;;;;;;5050819;28;20029;-64
2023/11/17 03:54:56;;;;;;;5.05;2.85;;;;;;;;;;5044996;28;20529;-65
2023/11/17 03:57:22;;;;;;;7.18;2.95;;;;;;;;;;5050573;28;20021;-65
2023/11/17 03:59:48;;;;;;;6.35;3.15;;;;;;;;;;5050749;28;20056;-65
2023/11/17 04:02:15;;;;;;;4.25;2.78;;;;;;;;;;5050300;28;20028;-65
2023/11/17 04:04:42;;;;;;;3.33;2.28;;;;;;;;;;5050891;28;20053;-64
2023/11/17 04:07:08;;;;;;;4.80;2.50;;;;;;;;;;5049550;28;20056;-65
2023/11/17 04:09:34;;;;;;;4.82;2.22;;;;;;;;;;5051023;28;20059;-64
2023/11/17 04:12:02;;;;;;;3.67;2.05;;;;;;;;;;5049592;28;20048;-65
2023/11/17 04:14:36;;;;;;;4.25;2.47;;;;;;;;;;5051314;28;20099;-65
2023/11/17 04:17:02;;;;;;;4.22;2.40;;;;;;;;;;5049028;28;20494;-64
2023/11/17 04:19:29;;;;;;;2.63;2.42;;;;;;;;;;5050950;28;20033;-65
2023/11/17 04:21:55;;;;;;;3.08;1.90;;;;;;;;;;5049499;28;20036;-65
2023/11/17 04:24:21;;;;;;;4.13;2.60;;;;;;;;;;5050710;28;20115;-64
2023/11/17 04:26:48;;;;;;;3.67;2.05;;;;;;;;;;5046722;28;20021;-64
2023/11/17 04:29:14;;;;;;;5.63;2.63;;;;;;;;;;5050095;28;20026;-65
2023/11/17 04:31:41;;;;;;;3.30;2.47;;;;;;;;;;5050401;28;20040;-65
2023/11/17 04:34:08;;;;;;;5.55;3.25;;;;;;;;;;5053529;28;20032;-65
2023/11/17 04:36:34;;;;;;;4.63;2.75;;;;;;;;;;5053763;28;20065;-64
2023/11/17 04:39:01;;;;;;;6.07;3.45;;;;;;;;;;5053223;28;20367;-65
2023/11/17 04:41:27;;;;;;;7.28;3.85;;;;;;;;;;5053775;28;20029;-65
2023/11/17 04:43:53;;;;;;;9.43;3.90;;;;;;;;;;5053897;28;20024;-64
2023/11/17 04:46:23;;;;;;;8.10;3.95;;;;;;;;;;5053569;28;20029;-64
2023/11/17 04:48:50;;;;;;;6.13;3.45;;;;;;;;;;5054483;28;20122;-64
2023/11/17 04:51:16;;;;;;;4.57;3.30;;;;;;;;;;5053096;28;20017;-65
2023/11/17 04:53:43;;;;;;;6.18;3.15;;;;;;;;;;5054082;28;20515;-64
2023/11/17 04:56:11;;;;;;;6.38;3.38;;;;;;;;;;5049216;28;20049;-65
2023/11/17 04:58:39;;;;;;;6.80;2.90;;;;;;;;;;5053925;28;20025;-65
2023/11/17 05:01:05;;;;;;;6.10;3.30;;;;;;;;;;5052586;28;20017;-65
2023/11/17 05:03:31;;;;;;;6.82;3.47;;;;;;;;;;5054033;28;20021;-65
2023/11/17 05:05:57;;;;;;;10.07;3.53;;;;;;;;;;5054426;28;20539;-65
2023/11/17 05:08:23;;;;;;;4.95;3.05;;;;;;;;;;5053878;28;20060;-65
2023/11/17 05:10:49;;;;;;;6.35;3.00;;;;;;;;;;5053262;28;20036;-64
2023/11/17 05:13:15;;;;;;;8.30;3.53;;;;;;;;;;5052809;28;20021;-64
2023/11/17 05:15:46;;;;;;;6.60;3.22;;;;;;;;;;5053704;28;20041;-64
2023/11/17 05:18:12;;;;;;;6.72;3.17;;;;;;;;;;5051839;28;20854;-64
2023/11/17 05:20:38;;;;;;;4.95;3.13;;;;;;;;;;5053388;28;20074;-65
2023/11/17 05:23:04;;;;;;;4.95;3.20;;;;;;;;;;5052730;28;20021;-64
2023/11/17 05:25:30;;;;;;;3.90;2.95;;;;;;;;;;5049865;28;20026;-65
2023/11/17 05:27:56;;;;;;;6.80;3.40;;;;;;;;;;5051885;28;20021;-65
2023/11/17 05:30:23;;;;;;;6.25;2.88;;;;;;;;;;5053389;28;20415;-65
2023/11/17 05:32:49;;;;;;;5.28;3.05;;;;;;;;;;5027248;28;20430;-65
2023/11/17 05:35:15;;;;;;;5.97;3.08;;;;;;;;;;5052949;28;20204;-65
2023/11/17 05:37:41;;;;;;;6.80;3.00;;;;;;;;;;5052575;28;20096;-65
2023/11/17 05:40:08;;;;;;;4.82;2.75;;;;;;;;;;5054097;28;20183;-65
2023/11/17 05:42:34;;;;;;;5.28;2.55;;;;;;;;;;5053094;28;20021;-65
2023/11/17 05:45:00;;;;;;;5.38;2.50;;;;;;;;;;5051797;28;20029;-64
2023/11/17 05:47:26;;;;;;;7.68;2.95;;;;;;;;;;5052570;28;20088;-64
2023/11/17 05:49:55;;;;;;;5.85;2.67;;;;;;;;;;5052277;28;20035;-65
2023/11/17 05:52:21;;;;;;;5.75;2.85;;;;;;;;;;5052348;28;20071;-65
2023/11/17 05:54:47;;;;;;;6.28;2.20;;;;;;;;;;5053023;28;20025;-64
2023/11/17 05:57:13;;;;;;;8.63;3.47;;;;;;;;;;5053563;28;20020;-65
2023/11/17 05:59:40;;;;;;;5.03;2.28;;;;;;;;;;5055126;28;20033;-65
2023/11/17 06:02:06;;;;;;;7.72;2.30;;;;;;;;;;5050558;28;20558;-64
2023/11/17 06:04:33;;;;;;;6.45;1.83;;;;;;;;;;5052768;28;20049;-64
2023/11/17 06:07:02;;;;;;;2.90;2.45;;;;;;;;;;5050874;28;20025;-64
2023/11/17 06:09:29;;;;;;;2.67;2.17;;;;;;;;;;5052108;28;20516;-64
2023/11/17 06:11:55;;;;;;;3.80;2.40;;;;;;;;;;5050783;28;20478;-64
2023/11/17 06:14:22;;;;;;;6.72;2.65;;;;;;;;;;5053918;28;20087;-64
2023/11/17 06:16:51;;;;;;;5.03;2.45;;;;;;;;;;5050765;28;20517;-65
2023/11/17 06:19:17;;;;;;;4.43;2.53;;;;;;;;;;5052082;28;20024;-69
2023/11/17 06:21:43;;;;;;;7.93;3.13;;;;;;;;;;5051329;28;20409;-65
2023/11/17 06:24:09;;;;;;;4.82;2.10;;;;;;;;;;5056654;28;20024;-64
2023/11/17 06:26:36;;;;;;;3.58;2.10;;;;;;;;;;5049247;28;20362;-65
2023/11/17 06:29:02;;;;;;;5.57;2.17;;;;;;;;;;5055945;28;20028;-65
2023/11/17 06:31:29;;;;;;;3.10;2.00;;;;;;;;;;5051672;28;20033;-65
2023/11/17 06:33:55;;;;;;;5.97;2.40;;;;;;;;;;5051024;28;20021;-64
2023/11/17 06:36:21;;;;;;;6.65;3.20;;;;;;;;;;5051931;28;20370;-64
2023/11/17 06:38:47;;;;;;;2.78;2.40;;;;;;;;;;5051683;28;20033;-63
2023/11/17 06:41:14;;;;;;;3.60;2.80;;;;;;;;;;5056905;28;20044;-65
2023/11/17 06:43:40;;;;;;;3.97;2.78;;;;;;;;;;5051818;28;20071;-65
2023/11/17 06:46:07;;;;;;;4.65;3.05;;;;;;;;;;5050082;28;20101;-64
2023/11/17 06:48:34;;;;;;;8.38;3.40;;;;;;;;;;5052290;28;20074;-65
2023/11/17 06:51:00;;;;;;;6.22;2.65;;;;;;;;;;5050467;28;20025;-65
2023/11/17 06:53:29;;;;;;;5.72;3.28;;;;;;;;;;5051500;28;20027;-65
2023/11/17 06:55:55;;;;;;;5.70;3.20;;;;;;;;;;5053298;28;20032;-65
2023/11/17 06:58:21;;;;;;;7.50;3.67;;;;;;;;;;5051491;28;20029;-65
2023/11/17 07:00:47;;;;;;;4.20;3.30;;;;;;;;;;5051643;28;20035;-65
2023/11/17 07:03:13;;;;;;;6.65;3.58;;;;;;;;;;5050060;28;20024;-65
2023/11/17 07:05:40;;;;;;;6.57;3.65;;;;;;;;;;5052070;28;20033;-66
2023/11/17 07:08:07;;;;;;;5.50;3.35;;;;;;;;;;5049649;28;20421;-65
2023/11/17 07:10:33;;;;;;;7.55;3.40;;;;;;;;;;5051354;28;20386;-65
2023/11/17 07:12:59;;;;;;;5.35;3.65;;;;;;;;;;5049566;28;20029;-65
2023/11/17 07:15:25;;;;;;;7.18;3.85;;;;;;;;;;5051304;28;20032;-66
2023/11/17 07:17:53;;;;;;;8.27;3.55;;;;;;;;;;5042654;28;20198;-65
2023/11/17 07:20:21;;;;;;;8.68;3.67;;;;;;;;;;5051207;28;20025;-65
2023/11/17 07:22:50;;;;;;;7.20;3.25;;;;;;;;;;5051876;28;20021;-65
2023/11/17 07:25:17;;;;;;;8.70;3.72;;;;;;;;;;5056311;28;20023;-65
2023/11/17 07:27:44;;;;;;;7.00;3.70;;;;;;;;;;5055720;28;20021;-66
2023/11/17 07:30:12;;;;;;;5.57;3.25;;;;;;;;;;5055322;28;20343;-69
2023/11/17 07:32:44;;;;;;;5.38;3.05;;;;;;;;;;5050407;28;20029;-65
2023/11/17 07:35:13;;;;;;;9.02;3.78;;;;;;;;;;5049871;28;20200;-67
2023/11/17 07:37:39;;;;;;;5.67;3.67;;;;;;;;;;5050898;28;20025;-65
2023/11/17 07:40:06;;;;;;;8.48;3.95;;;;;;;;;;5046459;28;21215;-66
2023/11/17 07:42:33;;;;;;;6.82;3.25;;;;;;;;;;5050206;28;20025;-66
2023/11/17 07:44:59;;;;;;;7.80;3.65;;;;;;;;;;5047811;28;20102;-66
2023/11/17 07:47:25;;;;;;;9.93;4.00;;;;;;;;;;5048987;28;20029;-66
2023/11/17 07:49:55;;;;;;;7.07;3.30;;;;;;;;;;5050639;28;20028;-66
2023/11/17 07:52:23;;;;;;;7.22;3.38;;;;;;;;;;5050989;28;20021;-66
2023/11/17 07:54:49;;;;;;;5.40;3.40;;;;;;;;;;5052946;28;20033;-67
2023/11/17 07:57:15;;;;;;;9.25;3.60;;;;;;;;;;5048801;28;20440;-67
2023/11/17 07:59:41;;;;;;;5.88;3.33;;;;;;;;;;5049998;28;20474;-67
2023/11/17 08:02:09;;;;;;;5.03;3.22;;;;;;;;;;5048749;28;20022;-67
2023/11/17 08:04:37;;;;;;;7.88;3.58;;;;;;;;;;5050204;28;20029;-66
2023/11/17 08:07:05;;;;;;;4.20;2.90;;;;;;;;;;5054660;28;20031;-67
2023/11/17 08:09:33;;;;;;;6.30;3.10;;;;;;;;;;5054346;28;20021;-66
2023/11/17 08:12:00;;;;;;;10.05;4.55;;;;;;;;;;5053848;28;20024;-66
2023/11/17 08:14:26;;;;;;;5.75;3.42;;;;;;;;;;5054868;28;20469;-66
2023/11/17 08:16:52;;;;;;;6.85;2.67;;;;;;;;;;5053046;28;20037;-66
2023/11/17 08:19:19;;;;;;;6.07;2.67;;;;;;;;;;5054062;28;20107;-66
2023/11/17 08:21:45;;;;;;;6.20;2.70;;;;;;;;;;5053825;28;20025;-66
2023/11/17 08:24:12;;;;;;;3.10;2.40;;;;;;;;;;5053778;28;20013;-67
2023/11/17 08:26:38;;;;;;;3.13;2.38;;;;;;;;;;5053671;28;20373;-66
2023/11/17 08:29:04;;;;;;;4.53;2.78;;;;;;;;;;5055078;28;20040;-65
2023/11/17 08:31:32;;;;;;;4.38;2.55;;;;;;;;;;5037106;28;20040;-65
2023/11/17 08:34:00;;;;;;;5.68;2.88;;;;;;;;;;5058763;28;20482;-65
2023/11/17 08:36:28;;;;;;;7.80;4.95;;;;;;;;;;5053944;28;20040;-65
2023/11/17 08:38:56;;;;;;;3.55;2.85;;;;;;;;;;5050377;28;20456;-65
2023/11/17 08:41:23;;;;;;;6.85;3.08;;;;;;;;;;5047991;28;20029;-65
2023/11/17 08:43:51;;;;;;;4.30;2.78;;;;;;;;;;5035064;28;20779;-65
2023/11/17 08:46:17;;;;;;;4.65;2.60;;;;;;;;;;5048737;28;20021;-66
2023/11/17 08:48:44;;;;;;;5.05;2.75;;;;;;;;;;5048410;28;20036;-66
2023/11/17 08:51:10;;;;;;;25.15;4.35;;;;;;;;;;5047366;28;20109;-66
2023/11/17 08:53:37;;;;;;;10.55;3.22;;;;;;;;;;5048839;28;20478;-65
2023/11/17 08:56:03;;;;;;;4.97;2.97;;;;;;;;;;5042832;28;20030;-65
2023/11/17 08:58:29;;;;;;;3.92;2.72;;;;;;;;;;5048245;28;20050;-66
2023/11/17 09:00:55;;;;;;;4.68;2.80;;;;;;;;;;5047471;28;20048;-65
2023/11/17 09:03:21;;;;;;;5.07;3.03;;;;;;;;;;5055231;28;20033;-66
2023/11/17 09:05:48;;;;;;;6.32;2.95;;;;;;;;;;5048180;28;20421;-65
2023/11/17 09:08:16;;;;;;;3.83;2.70;;;;;;;;;;5046909;28;20111;-65
2023/11/17 09:10:42;;;;;;;5.28;2.90;;;;;;;;;;5043976;28;20025;-65
2023/11/17 09:13:09;;;;;;;9.85;2.80;;;;;;;;;;5045368;28;20120;-65
2023/11/17 09:15:38;;;;;;;3.50;2.70;;;;;;;;;;5047576;28;20120;-66
2023/11/17 09:18:03;;;;;;;3.65;2.25;;;;;;;;;;5047178;28;20498;-66
2023/11/17 09:20:29;;;;;;;3.10;2.47;;;;;;;;;;5053453;28;20032;-65
2023/11/17 09:22:56;;;;;;;2.97;2.03;;;;;;;;;;5050990;28;20013;-65
2023/11/17 09:25:25;;;;;;;5.28;1.88;;;;;;;;;;5049323;28;20021;-65
2023/11/17 09:27:55;;;;;;;5.15;1.88;;;;;;;;;;5040772;28;20013;-65
2023/11/17 09:30:22;;;;;;;2.35;1.80;;;;;;;;;;5051032;28;20024;-66
2023/11/17 09:32:55;;;;;;;2.83;1.63;;;;;;;;;;5052326;28;20029;-66
2023/11/17 09:35:21;;;;;;;3.47;1.80;;;;;;;;;;5052363;28;20040;-65
2023/11/17 09:37:53;;;;;;;1.60;1.50;;;;;;;;;;5049721;28;20021;-66
2023/11/17 09:40:21;;;;;;;3.10;1.90;;;;;;;;;;5052663;28;20021;-66
2023/11/17 09:42:50;;;;;;;1.92;1.55;;;;;;;;;;5050915;28;20021;-65
2023/11/17 09:45:19;;;;;;;2.17;1.55;;;;;;;;;;5051956;28;20478;-65
2023/11/17 09:47:46;;;;;;;2.33;1.17;;;;;;;;;;5051923;28;20021;-65
2023/11/17 09:50:13;;;;;;;3.22;1.50;;;;;;;;;;5051625;28;20100;-65
2023/11/17 09:52:42;;;;;;;1.40;1.05;;;;;;;;;;5052091;28;20535;-66
2023/11/17 09:55:08;;;;;;;2.53;1.13;;;;;;;;;;5052397;28;20029;-66
2023/11/17 09:57:34;;;;;;;0.75;0.75;;;;;;;;;;5047537;28;20104;-66
2023/11/17 10:00:14;;;;;;;1.48;1.10;;;;;;;;;;5050749;28;20114;-66
2023/11/17 10:02:41;;;;;;;1.52;1.30;;;;;;;;;;5051465;28;20086;-65
2023/11/17 10:05:08;;;;;;;1.77;0.90;;;;;;;;;;5051159;28;20402;-66
2023/11/17 10:07:35;;;;;;;2.65;1.40;;;;;;;;;;5050593;28;20060;-66
2023/11/17 10:10:04;;;;;;;1.63;1.10;;;;;;;;;;5051140;28;20048;-66
2023/11/17 10:12:32;;;;;;;1.17;0.90;;;;;;;;;;5052306;28;20033;-66
2023/11/17 10:14:59;;;;;;;1.50;1.00;;;;;;;;;;5051292;28;20370;-65
2023/11/17 10:17:25;;;;;;;1.45;1.00;;;;;;;;;;5051084;28;20563;-66
2023/11/17 10:19:51;;;;;;;1.02;0.90;;;;;;;;;;5051749;28;20108;-65
2023/11/17 10:22:17;;;;;;;2.75;1.05;;;;;;;;;;5050771;28;20067;-65
2023/11/17 10:24:44;;;;;;;1.52;1.13;;;;;;;;;;5052052;28;20029;-65
2023/11/17 10:27:10;;;;;;;1.35;1.20;;;;;;;;;;5053579;28;20039;-66
2023/11/17 10:29:36;;;;;;;2.08;1.20;;;;;;;;;;5060277;28;20036;-65
2023/11/17 10:32:05;;;;;;;1.42;1.20;;;;;;;;;;5053349;28;20473;-66
2023/11/17 10:34:31;;;;;;;2.58;1.13;;;;;;;;;;5035218;28;20021;-66
2023/11/17 10:36:57;;;;;;;1.02;0.85;;;;;;;;;;5050257;28;20569;-65
2023/11/17 10:39:24;;;;;;;1.17;1.05;;;;;;;;;;5051139;28;20069;-64
2023/11/17 10:41:50;;;;;;;3.10;1.10;;;;;;;;;;5051202;28;20025;-65
2023/11/17 10:44:30;;;;;;;1.08;0.93;;;;;;;;;;5052008;28;20029;-67
2023/11/17 10:46:56;;;;;;;1.53;1.30;;;;;;;;;;5051325;28;20048;-66
2023/11/17 10:49:22;;;;;;;1.85;1.15;;;;;;;;;;5051429;28;20049;-67
2023/11/17 10:51:52;;;;;;;2.25;1.30;;;;;;;;;;5045364;28;20529;-66
2023/11/17 10:54:19;;;;;;;2.08;1.20;;;;;;;;;;5047893;28;20032;-66
2023/11/17 10:56:45;;;;;;;1.20;0.90;;;;;;;;;;5045342;28;20421;-65
2023/11/17 10:59:15;;;;;;;2.17;1.25;;;;;;;;;;5044687;28;20393;-65
2023/11/17 11:01:41;;;;;;;;;;;;;;;;;;5046382;28;20083;-68
2023/11/17 11:04:15;;;;;;;2.03;0.80;;;;;;;;;;5044864;28;19917;-66
2023/11/17 11:06:42;;;;;;;1.40;1.17;;;;;;;;;;5035259;28;20026;-65
2023/11/17 11:09:09;;;;;;;1.48;1.10;;;;;;;;;;5033618;28;20029;-64
2023/11/17 11:11:35;;;;;;;2.60;1.40;;;;;;;;;;5048356;28;20070;-67
2023/11/17 11:14:02;;;;;;;1.10;0.90;;;;;;;;;;5036295;28;20367;-66
2023/11/17 11:16:32;;;;;;;2.00;1.17;;;;;;;;;;5050937;28;20131;-66
2023/11/17 11:18:58;;;;;;;1.83;1.05;;;;;;;;;;5038773;28;20040;-66
2023/11/17 11:21:27;;;;;;;3.72;1.25;;;;;;;;;;5042739;28;20115;-65
2023/11/17 11:24:00;;;;;;;1.45;1.10;;;;;;;;;;5046415;28;20021;-66
2023/11/17 11:26:30;;;;;;;1.27;1.10;;;;;;;;;;5044270;28;20025;-64
2023/11/17 11:28:56;;;;;;;4.90;1.00;;;;;;;;;;5053329;28;20028;-65
2023/11/17 11:31:22;;;;;;;0.82;0.75;;;;;;;;;;5044292;28;20148;-65
2023/11/17 11:33:49;;;;;;;0.80;0.80;;;;;;;;;;5053338;28;20047;-65
2023/11/17 11:36:15;;;;;;;2.17;0.95;;;;;;;;;;5055077;28;20060;-65
2023/11/17 11:38:47;;;;;;;1.00;0.90;;;;;;;;;;5044957;28;20036;-65
2023/11/17 11:41:15;;;;;;;0.95;0.57;;;;;;;;;;5043352;28;20029;-65
2023/11/17 11:43:45;;;;;;;4.72;0.70;;;;;;;;;;5044582;28;20029;-64
2023/11/17 11:46:15;;;;;;;2.00;0.60;;;;;;;;;;5047847;28;20029;-65
2023/11/17 11:48:43;;;;;;;3.30;0.75;;;;;;;;;;5038560;28;20886;-65
2023/11/17 11:51:10;;;;;;;0.90;0.63;;;;;;;;;;5043933;28;20041;-66
2023/11/17 11:53:41;;;;;;;1.67;0.82;;;;;;;;;;5049833;28;20028;-65
2023/11/17 11:56:11;;;;;;;1.73;0.63;;;;;;;;;;5044094;28;20044;-65
2023/11/17 11:58:45;;;;;;;1.30;0.70;;;;;;;;;;5044711;28;20073;-66
2023/11/17 12:01:12;;;;;;;1.80;0.75;;;;;;;;;;5043753;28;20048;-66
2023/11/17 12:03:38;;;;;;;1.38;0.90;;;;;;;;;;5044607;28;20071;-65
2023/11/17 12:06:04;;;;;;;0.73;0.73;;;;;;;;;;5043846;28;20382;-65
2023/11/17 12:08:31;;;;;;;0.60;0.55;;;;;;;;;;5045233;28;20557;-66
2023/11/17 12:11:06;;;;;;;2.28;0.60;;;;;;;;;;5055607;28;20059;-66
2023/11/17 12:13:47;;;;;;;1.17;0.50;;;;;;;;;;5045148;28;20079;-65
2023/11/17 12:16:33;;;;;;;0.73;0.40;;;;;;;;;;5047539;28;20025;-64
2023/11/17 12:19:00;;;;;;;0.98;0.80;;;;;;;;;;5033380;28;20136;-64
2023/11/17 12:21:27;;;;;;;0.90;0.60;;;;;;;;;;5046487;28;20029;-65
2023/11/17 12:23:57;;;;;;;2.28;1.30;;;;;;;;;;5050560;28;20028;-65
2023/11/17 12:26:24;;;;;;;2.28;0.93;;;;;;;;;;5043769;28;20116;-65
2023/11/17 12:28:50;;;;;;;1.65;0.80;;;;;;;;;;5050278;28;20060;-65
2023/11/17 12:31:17;;;;;;;1.55;0.85;;;;;;;;;;5043361;28;20619;-65
2023/11/17 12:33:43;;;;;;;2.08;0.82;;;;;;;;;;5044552;28;20029;-65
2023/11/17 12:36:13;;;;;;;0.73;0.50;;;;;;;;;;5048650;28;20028;-66
2023/11/17 12:38:43;;;;;;;2.40;0.60;;;;;;;;;;5051219;28;20043;-66
2023/11/17 12:41:12;;;;;;;0.50;0.50;;;;;;;;;;5043713;28;20080;-66
2023/11/17 12:43:45;;;;;;;1.13;0.50;;;;;;;;;;5044481;28;20739;-66
2023/11/17 12:46:11;;;;;;;2.60;0.60;;;;;;;;;;5042243;28;20025;-65
2023/11/17 12:48:38;;;;;;;0.80;0.40;;;;;;;;;;5049144;28;20440;-66
2023/11/17 12:51:05;;;;;;;0.77;0.52;;;;;;;;;;5043291;28;20044;-66
2023/11/17 12:53:42;;;;;;;0.60;0.32;;;;;;;;;;5048291;28;20068;-66
2023/11/17 12:56:08;;;;;;;1.25;0.90;;;;;;;;;;5046157;28;20056;-66
2023/11/17 12:58:35;;;;;;;2.58;0.47;;;;;;;;;;5047810;28;20036;-66
2023/11/17 13:01:07;;;;;;;0.30;0.30;;;;;;;;;;5046429;28;20033;-67
2023/11/17 13:03:35;;;;;;;0.30;0.30;;;;;;;;;;5048025;28;20021;-66
2023/11/17 13:06:01;;;;;;;0.80;0.20;;;;;;;;;;5045297;28;20028;-66
2023/11/17 13:08:27;;;;;;;1.95;0.40;;;;;;;;;;5046341;28;20037;-66
2023/11/17 13:10:56;;;;;;;0.52;0.40;;;;;;;;;;5047525;28;20037;-65
2023/11/17 13:13:22;;;;;;;0.93;0.40;;;;;;;;;;5043102;28;20021;-66
2023/11/17 13:15:48;;;;;;;0.70;0.60;;;;;;;;;;5050999;28;20035;-65
2023/11/17 13:18:14;;;;;;;0.32;0.28;;;;;;;;;;5054341;28;20562;-65
2023/11/17 13:20:40;;;;;;;1.33;0.45;;;;;;;;;;5040795;28;20036;-65
2023/11/17 13:23:06;;;;;;;1.05;0.30;;;;;;;;;;5048111;28;20036;-65
2023/11/17 13:25:32;;;;;;;0.57;0.50;;;;;;;;;;5049415;28;20036;-65
2023/11/17 13:28:04;;;;;;;0.93;0.30;;;;;;;;;;5047709;28;20128;-64
2023/11/17 13:30:30;;;;;;;0.75;0.45;;;;;;;;;;5052016;28;20140;-64
2023/11/17 13:32:56;;;;;;;0.52;0.50;;;;;;;;;;5049374;28;20469;-64
2023/11/17 13:35:26;;;;;;;0.93;0.55;;;;;;;;;;5043287;28;20112;-64
2023/11/17 13:37:52;;;;;;;0.75;0.65;;;;;;;;;;5049499;28;20028;-65
2023/11/17 13:40:30;;;;;;;0.80;0.55;;;;;;;;;;5048340;28;20029;-65
2023/11/17 13:42:56;;;;;;;0.82;0.43;;;;;;;;;;5047303;28;20508;-66
2023/11/17 13:45:24;;;;;;;0.30;0.30;;;;;;;;;;5049184;28;20493;-65
2023/11/17 13:47:59;;;;;;;0.95;0.60;;;;;;;;;;5046330;28;20033;-65
2023/11/17 13:50:27;;;;;;;2.33;0.40;;;;;;;;;;5040083;28;20028;-66
2023/11/17 13:52:53;;;;;;;0.38;0.38;;;;;;;;;;5049041;28;20029;-64
2023/11/17 13:55:19;;;;;;;1.13;0.38;;;;;;;;;;5046315;28;20052;-65
2023/11/17 13:57:46;;;;;;;0.52;0.40;;;;;;;;;;5046057;28;20486;-65
2023/11/17 14:00:12;;;;;;;0.55;0.28;;;;;;;;;;5046215;28;20051;-65
2023/11/17 14:02:41;;;;;;;1.40;0.60;;;;;;;;;;5046388;28;20444;-65
2023/11/17 14:05:11;;;;;;;1.20;0.60;;;;;;;;;;5045444;28;20029;-65
2023/11/17 14:07:37;;;;;;;1.25;0.70;;;;;;;;;;5046509;28;20032;-65
2023/11/17 14:10:05;;;;;;;2.00;0.88;;;;;;;;;;5035502;28;20063;-64
2023/11/17 14:12:31;;;;;;;2.25;0.90;;;;;;;;;;5035021;28;20029;-66
2023/11/17 14:14:57;;;;;;;1.27;0.90;;;;;;;;;;5038130;28;20029;-66
2023/11/17 14:17:24;;;;;;;4.47;1.13;;;;;;;;;;5045985;28;20057;-65
2023/11/17 14:19:50;;;;;;;2.50;1.20;;;;;;;;;;5047890;28;20051;-65
2023/11/17 14:22:17;;;;;;;2.92;1.33;;;;;;;;;;5052824;28;20013;-66
2023/11/17 14:24:44;;;;;;;3.83;1.42;;;;;;;;;;5044145;28;20025;-66
2023/11/17 14:27:11;;;;;;;1.38;0.90;;;;;;;;;;5056929;28;20034;-65
2023/11/17 14:29:41;;;;;;;0.60;0.60;;;;;;;;;;5046208;28;20629;-65
2023/11/17 14:32:08;;;;;;;1.02;0.90;;;;;;;;;;5044377;28;20488;-69
2023/11/17 14:34:34;;;;;;;0.80;0.73;;;;;;;;;;5046272;28;20512;-67
2023/11/17 14:37:00;;;;;;;1.08;0.88;;;;;;;;;;5045189;28;20084;-65
2023/11/17 14:39:30;;;;;;;0.90;0.55;;;;;;;;;;5046717;28;20040;-65
2023/11/17 14:41:56;;;;;;;1.70;0.80;;;;;;;;;;5050822;28;20021;-65
2023/11/17 14:44:23;;;;;;;2.40;0.80;;;;;;;;;;5048857;28;20369;-65